Terminal Aerodrome Forecast
Issued by NWS Dallas/Fort Worth, TX

Home | Current Version | Previous Version | Text Only | Print | Product List | Glossary On
Versions: 1 2 3 4 5 6 7 8 9 10 11 12 13 14 15 16 17 18 19 20 21 22 23 24 25
377
FTUS44 KFWD 261141
TAFDFW
TAF
KDFW 261141Z 2612/2718 17008KT P6SM SCT250
     FM261800 16013KT P6SM BKN018
     FM262200 17014KT P6SM VCSH OVC012
     FM270300 15012KT 5SM -DZ BR OVC010
     FM270600 15009KT 2SM -DZ BR OVC008
     FM271200 17012KT 5SM BR OVC015
     FM271600 20014KT P6SM SCT015=

USA.gov is the U.S. government's official web portal to all federal, state and local government web resources and services.